sensor_id;sensor_type;location;lat;lon;timestamp;P1;durP1;ratioP1;P2;durP2;ratioP2
21671;SDS011;10997;52.242;8.168;2023-11-19T00:00:52;27.02;;;21.05;;
21671;SDS011;10997;52.242;8.168;2023-11-19T00:05:53;24.23;;;19.50;;
21671;SDS011;10997;52.242;8.168;2023-11-19T00:10:53;24.55;;;21.20;;
21671;SDS011;10997;52.242;8.168;2023-11-19T00:15:54;23.73;;;19.92;;
21671;SDS011;10997;52.242;8.168;2023-11-19T00:20:55;19.00;;;15.93;;
21671;SDS011;10997;52.242;8.168;2023-11-19T00:25:55;16.67;;;14.95;;
21671;SDS011;10997;52.242;8.168;2023-11-19T00:30:56;14.32;;;12.82;;
21671;SDS011;10997;52.242;8.168;2023-11-19T00:35:56;12.80;;;11.50;;
21671;SDS011;10997;52.242;8.168;2023-11-19T00:40:57;13.18;;;11.63;;
21671;SDS011;10997;52.242;8.168;2023-11-19T00:45:57;16.15;;;14.45;;
21671;SDS011;10997;52.242;8.168;2023-11-19T00:50:58;18.13;;;15.38;;
21671;SDS011;10997;52.242;8.168;2023-11-19T00:55:59;15.75;;;13.55;;
21671;SDS011;10997;52.242;8.168;2023-11-19T01:00:59;21.40;;;17.10;;
21671;SDS011;10997;52.242;8.168;2023-11-19T01:06:00;20.75;;;17.35;;
21671;SDS011;10997;52.242;8.168;2023-11-19T01:11:02;21.17;;;17.85;;
21671;SDS011;10997;52.242;8.168;2023-11-19T01:16:04;24.05;;;18.88;;
21671;SDS011;10997;52.242;8.168;2023-11-19T01:21:06;25.55;;;20.52;;
21671;SDS011;10997;52.242;8.168;2023-11-19T01:26:07;27.40;;;21.52;;
21671;SDS011;10997;52.242;8.168;2023-11-19T01:31:12;29.58;;;22.38;;
21671;SDS011;10997;52.242;8.168;2023-11-19T01:36:15;33.55;;;25.52;;
21671;SDS011;10997;52.242;8.168;2023-11-19T01:41:16;37.20;;;26.10;;
21671;SDS011;10997;52.242;8.168;2023-11-19T01:46:16;38.17;;;29.38;;
21671;SDS011;10997;52.242;8.168;2023-11-19T01:51:17;38.70;;;28.48;;
21671;SDS011;10997;52.242;8.168;2023-11-19T01:56:17;39.97;;;29.33;;
21671;SDS011;10997;52.242;8.168;2023-11-19T02:01:20;41.80;;;30.30;;
21671;SDS011;10997;52.242;8.168;2023-11-19T02:06:21;43.38;;;30.83;;
21671;SDS011;10997;52.242;8.168;2023-11-19T02:11:23;45.30;;;32.35;;
21671;SDS011;10997;52.242;8.168;2023-11-19T02:16:24;46.90;;;32.95;;
21671;SDS011;10997;52.242;8.168;2023-11-19T02:21:24;51.22;;;34.78;;
21671;SDS011;10997;52.242;8.168;2023-11-19T02:26:28;49.67;;;33.88;;
21671;SDS011;10997;52.242;8.168;2023-11-19T02:31:35;48.95;;;33.75;;
21671;SDS011;10997;52.242;8.168;2023-11-19T02:36:35;50.55;;;33.10;;
21671;SDS011;10997;52.242;8.168;2023-11-19T02:41:36;50.83;;;32.78;;
21671;SDS011;10997;52.242;8.168;2023-11-19T02:46:39;45.40;;;31.33;;
21671;SDS011;10997;52.242;8.168;2023-11-19T02:51:42;47.85;;;32.17;;
21671;SDS011;10997;52.242;8.168;2023-11-19T02:56:43;47.30;;;31.65;;
21671;SDS011;10997;52.242;8.168;2023-11-19T03:01:43;49.65;;;32.90;;
21671;SDS011;10997;52.242;8.168;2023-11-19T03:06:50;57.03;;;34.63;;
21671;SDS011;10997;52.242;8.168;2023-11-19T03:11:50;47.80;;;30.85;;
21671;SDS011;10997;52.242;8.168;2023-11-19T03:16:51;52.58;;;33.00;;
21671;SDS011;10997;52.242;8.168;2023-11-19T03:21:52;55.22;;;33.10;;
21671;SDS011;10997;52.242;8.168;2023-11-19T03:26:52;48.72;;;32.40;;
21671;SDS011;10997;52.242;8.168;2023-11-19T03:31:53;53.90;;;32.13;;
21671;SDS011;10997;52.242;8.168;2023-11-19T03:36:53;49.13;;;30.35;;
21671;SDS011;10997;52.242;8.168;2023-11-19T03:41:54;45.25;;;29.58;;
21671;SDS011;10997;52.242;8.168;2023-11-19T03:46:54;46.72;;;29.25;;
21671;SDS011;10997;52.242;8.168;2023-11-19T03:51:55;45.05;;;25.88;;
21671;SDS011;10997;52.242;8.168;2023-11-19T03:56:56;42.45;;;24.42;;
21671;SDS011;10997;52.242;8.168;2023-11-19T04:01:56;41.17;;;22.80;;
21671;SDS011;10997;52.242;8.168;2023-11-19T04:07:00;36.92;;;22.20;;
21671;SDS011;10997;52.242;8.168;2023-11-19T04:12:03;38.45;;;20.75;;
21671;SDS011;10997;52.242;8.168;2023-11-19T04:17:04;36.13;;;21.63;;
21671;SDS011;10997;52.242;8.168;2023-11-19T04:22:04;36.65;;;20.60;;
21671;SDS011;10997;52.242;8.168;2023-11-19T04:27:06;34.38;;;16.80;;
21671;SDS011;10997;52.242;8.168;2023-11-19T04:32:06;37.42;;;17.17;;
21671;SDS011;10997;52.242;8.168;2023-11-19T04:37:08;32.72;;;14.55;;
21671;SDS011;10997;52.242;8.168;2023-11-19T04:42:09;30.27;;;13.07;;
21671;SDS011;10997;52.242;8.168;2023-11-19T04:47:10;30.67;;;12.95;;
21671;SDS011;10997;52.242;8.168;2023-11-19T04:52:11;32.92;;;11.73;;
21671;SDS011;10997;52.242;8.168;2023-11-19T04:57:14;32.80;;;11.90;;
21671;SDS011;10997;52.242;8.168;2023-11-19T05:02:15;34.30;;;11.05;;
21671;SDS011;10997;52.242;8.168;2023-11-19T05:07:15;33.70;;;9.57;;
21671;SDS011;10997;52.242;8.168;2023-11-19T05:12:16;34.00;;;10.15;;
21671;SDS011;10997;52.242;8.168;2023-11-19T05:17:17;35.80;;;10.07;;
21671;SDS011;10997;52.242;8.168;2023-11-19T05:22:18;30.42;;;8.75;;
21671;SDS011;10997;52.242;8.168;2023-11-19T05:27:20;30.45;;;6.95;;
21671;SDS011;10997;52.242;8.168;2023-11-19T05:32:21;30.05;;;7.65;;
21671;SDS011;10997;52.242;8.168;2023-11-19T05:37:21;33.05;;;8.52;;
21671;SDS011;10997;52.242;8.168;2023-11-19T05:42:22;33.25;;;7.82;;
21671;SDS011;10997;52.242;8.168;2023-11-19T05:47:23;31.58;;;6.75;;
21671;SDS011;10997;52.242;8.168;2023-11-19T05:52:24;30.38;;;6.50;;
21671;SDS011;10997;52.242;8.168;2023-11-19T05:57:24;25.98;;;5.72;;
21671;SDS011;10997;52.242;8.168;2023-11-19T06:02:25;35.10;;;6.10;;
21671;SDS011;10997;52.242;8.168;2023-11-19T06:07:27;37.28;;;6.35;;
21671;SDS011;10997;52.242;8.168;2023-11-19T06:12:28;30.70;;;5.65;;
21671;SDS011;10997;52.242;8.168;2023-11-19T06:17:28;37.97;;;6.57;;
21671;SDS011;10997;52.242;8.168;2023-11-19T06:22:29;35.15;;;5.70;;
21671;SDS011;10997;52.242;8.168;2023-11-19T06:27:29;38.92;;;5.93;;
21671;SDS011;10997;52.242;8.168;2023-11-19T06:32:30;29.30;;;5.65;;
21671;SDS011;10997;52.242;8.168;2023-11-19T06:37:31;39.47;;;5.90;;
21671;SDS011;10997;52.242;8.168;2023-11-19T06:42:32;35.67;;;6.53;;
21671;SDS011;10997;52.242;8.168;2023-11-19T06:47:32;43.00;;;6.80;;
21671;SDS011;10997;52.242;8.168;2023-11-19T06:52:33;32.20;;;5.97;;
21671;SDS011;10997;52.242;8.168;2023-11-19T06:57:34;34.50;;;5.80;;
21671;SDS011;10997;52.242;8.168;2023-11-19T07:02:34;30.10;;;5.93;;
21671;SDS011;10997;52.242;8.168;2023-11-19T07:07:35;36.90;;;6.22;;
21671;SDS011;10997;52.242;8.168;2023-11-19T07:12:35;44.97;;;6.90;;
21671;SDS011;10997;52.242;8.168;2023-11-19T07:17:36;40.15;;;5.97;;
21671;SDS011;10997;52.242;8.168;2023-11-19T07:22:39;37.67;;;6.10;;
21671;SDS011;10997;52.242;8.168;2023-11-19T07:27:39;34.40;;;6.05;;
21671;SDS011;10997;52.242;8.168;2023-11-19T07:32:40;41.28;;;7.35;;
21671;SDS011;10997;52.242;8.168;2023-11-19T07:37:41;38.22;;;6.50;;
21671;SDS011;10997;52.242;8.168;2023-11-19T07:42:42;34.92;;;6.25;;
21671;SDS011;10997;52.242;8.168;2023-11-19T07:47:43;47.63;;;7.22;;
21671;SDS011;10997;52.242;8.168;2023-11-19T07:52:44;29.85;;;5.88;;
21671;SDS011;10997;52.242;8.168;2023-11-19T07:57:45;47.22;;;7.43;;
21671;SDS011;10997;52.242;8.168;2023-11-19T08:02:45;48.88;;;6.88;;
21671;SDS011;10997;52.242;8.168;2023-11-19T08:07:46;44.75;;;7.07;;
21671;SDS011;10997;52.242;8.168;2023-11-19T08:12:47;40.63;;;6.90;;
21671;SDS011;10997;52.242;8.168;2023-11-19T08:17:47;39.28;;;7.63;;
21671;SDS011;10997;52.242;8.168;2023-11-19T08:22:48;37.97;;;5.90;;
21671;SDS011;10997;52.242;8.168;2023-11-19T08:27:48;46.13;;;7.47;;
21671;SDS011;10997;52.242;8.168;2023-11-19T08:32:49;39.67;;;7.40;;
21671;SDS011;10997;52.242;8.168;2023-11-19T08:37:50;41.85;;;7.70;;
21671;SDS011;10997;52.242;8.168;2023-11-19T08:42:51;46.55;;;6.93;;
21671;SDS011;10997;52.242;8.168;2023-11-19T08:47:51;33.63;;;7.13;;
21671;SDS011;10997;52.242;8.168;2023-11-19T08:52:52;41.65;;;6.65;;
21671;SDS011;10997;52.242;8.168;2023-11-19T08:57:53;39.95;;;7.30;;
21671;SDS011;10997;52.242;8.168;2023-11-19T09:02:53;45.80;;;7.22;;
21671;SDS011;10997;52.242;8.168;2023-11-19T09:07:54;43.13;;;6.65;;
21671;SDS011;10997;52.242;8.168;2023-11-19T09:12:54;38.90;;;6.63;;
21671;SDS011;10997;52.242;8.168;2023-11-19T09:17:55;50.70;;;7.75;;
21671;SDS011;10997;52.242;8.168;2023-11-19T09:22:56;43.60;;;7.10;;
21671;SDS011;10997;52.242;8.168;2023-11-19T09:27:56;43.22;;;7.55;;
21671;SDS011;10997;52.242;8.168;2023-11-19T09:32:57;42.38;;;8.05;;
21671;SDS011;10997;52.242;8.168;2023-11-19T09:37:57;44.33;;;7.53;;
21671;SDS011;10997;52.242;8.168;2023-11-19T09:42:59;42.58;;;7.88;;
21671;SDS011;10997;52.242;8.168;2023-11-19T09:48:00;45.03;;;7.25;;
21671;SDS011;10997;52.242;8.168;2023-11-19T09:53:02;48.20;;;7.35;;
21671;SDS011;10997;52.242;8.168;2023-11-19T09:58:03;43.08;;;7.22;;
21671;SDS011;10997;52.242;8.168;2023-11-19T10:03:03;41.55;;;6.50;;
21671;SDS011;10997;52.242;8.168;2023-11-19T10:08:06;44.05;;;7.15;;
21671;SDS011;10997;52.242;8.168;2023-11-19T10:13:08;45.72;;;7.32;;
21671;SDS011;10997;52.242;8.168;2023-11-19T10:18:08;43.17;;;7.05;;
21671;SDS011;10997;52.242;8.168;2023-11-19T10:23:09;47.88;;;7.72;;
21671;SDS011;10997;52.242;8.168;2023-11-19T10:28:11;38.35;;;7.18;;
21671;SDS011;10997;52.242;8.168;2023-11-19T10:33:14;37.72;;;7.85;;
21671;SDS011;10997;52.242;8.168;2023-11-19T10:38:17;46.28;;;7.07;;
21671;SDS011;10997;52.242;8.168;2023-11-19T10:43:18;41.92;;;7.47;;
21671;SDS011;10997;52.242;8.168;2023-11-19T10:48:19;44.65;;;7.32;;
21671;SDS011;10997;52.242;8.168;2023-11-19T10:53:21;40.00;;;7.05;;
21671;SDS011;10997;52.242;8.168;2023-11-19T10:58:26;42.38;;;7.38;;
21671;SDS011;10997;52.242;8.168;2023-11-19T11:03:29;40.97;;;7.43;;
21671;SDS011;10997;52.242;8.168;2023-11-19T11:08:39;35.80;;;6.10;;
21671;SDS011;10997;52.242;8.168;2023-11-19T11:13:43;45.13;;;7.68;;
21671;SDS011;10997;52.242;8.168;2023-11-19T11:40:04;44.60;;;8.60;;
21671;SDS011;10997;52.242;8.168;2023-11-19T11:45:13;37.55;;;7.18;;
21671;SDS011;10997;52.242;8.168;2023-11-19T11:55:18;46.42;;;7.25;;
21671;SDS011;10997;52.242;8.168;2023-11-19T12:00:22;47.50;;;7.78;;
21671;SDS011;10997;52.242;8.168;2023-11-19T12:05:29;47.88;;;7.78;;
21671;SDS011;10997;52.242;8.168;2023-11-19T12:10:36;41.33;;;7.72;;
21671;SDS011;10997;52.242;8.168;2023-11-19T12:20:59;40.53;;;7.65;;
21671;SDS011;10997;52.242;8.168;2023-11-19T12:26:00;46.55;;;7.43;;
21671;SDS011;10997;52.242;8.168;2023-11-19T12:31:10;44.83;;;7.40;;
21671;SDS011;10997;52.242;8.168;2023-11-19T12:36:10;38.58;;;6.70;;
21671;SDS011;10997;52.242;8.168;2023-11-19T12:41:11;38.03;;;6.43;;
21671;SDS011;10997;52.242;8.168;2023-11-19T12:46:16;35.50;;;6.85;;
21671;SDS011;10997;52.242;8.168;2023-11-19T12:51:19;44.10;;;7.28;;
21671;SDS011;10997;52.242;8.168;2023-11-19T12:56:20;37.50;;;6.20;;
21671;SDS011;10997;52.242;8.168;2023-11-19T13:01:22;34.53;;;6.35;;
21671;SDS011;10997;52.242;8.168;2023-11-19T13:06:23;42.95;;;8.00;;
21671;SDS011;10997;52.242;8.168;2023-11-19T13:11:33;42.90;;;7.13;;
21671;SDS011;10997;52.242;8.168;2023-11-19T13:16:36;33.63;;;6.15;;
21671;SDS011;10997;52.242;8.168;2023-11-19T13:21:37;34.80;;;6.10;;
21671;SDS011;10997;52.242;8.168;2023-11-19T13:26:39;34.35;;;6.07;;
21671;SDS011;10997;52.242;8.168;2023-11-19T13:31:40;39.63;;;6.22;;
21671;SDS011;10997;52.242;8.168;2023-11-19T13:36:40;36.67;;;5.80;;
21671;SDS011;10997;52.242;8.168;2023-11-19T13:41:42;39.67;;;6.15;;
21671;SDS011;10997;52.242;8.168;2023-11-19T13:46:46;38.38;;;6.68;;
21671;SDS011;10997;52.242;8.168;2023-11-19T13:51:47;35.70;;;5.63;;
21671;SDS011;10997;52.242;8.168;2023-11-19T13:56:47;30.52;;;5.63;;
21671;SDS011;10997;52.242;8.168;2023-11-19T14:01:48;35.58;;;5.05;;
21671;SDS011;10997;52.242;8.168;2023-11-19T14:06:49;29.55;;;5.10;;
21671;SDS011;10997;52.242;8.168;2023-11-19T14:11:50;31.10;;;5.22;;
21671;SDS011;10997;52.242;8.168;2023-11-19T14:16:51;33.03;;;6.13;;
21671;SDS011;10997;52.242;8.168;2023-11-19T14:21:52;25.90;;;4.85;;
21671;SDS011;10997;52.242;8.168;2023-11-19T14:26:52;34.72;;;5.80;;
21671;SDS011;10997;52.242;8.168;2023-11-19T14:31:53;32.97;;;5.60;;
21671;SDS011;10997;52.242;8.168;2023-11-19T14:36:54;28.30;;;5.57;;
21671;SDS011;10997;52.242;8.168;2023-11-19T14:41:54;27.50;;;5.47;;
21671;SDS011;10997;52.242;8.168;2023-11-19T14:46:58;31.85;;;4.78;;
21671;SDS011;10997;52.242;8.168;2023-11-19T14:51:59;29.60;;;4.88;;
21671;SDS011;10997;52.242;8.168;2023-11-19T14:56:59;31.75;;;5.47;;
21671;SDS011;10997;52.242;8.168;2023-11-19T15:02:00;31.73;;;4.85;;
21671;SDS011;10997;52.242;8.168;2023-11-19T15:07:01;30.75;;;5.03;;
21671;SDS011;10997;52.242;8.168;2023-11-19T15:12:03;31.00;;;5.35;;
21671;SDS011;10997;52.242;8.168;2023-11-19T15:17:05;26.83;;;4.97;;
21671;SDS011;10997;52.242;8.168;2023-11-19T15:22:07;26.83;;;4.88;;
21671;SDS011;10997;52.242;8.168;2023-11-19T15:27:07;34.45;;;5.32;;
21671;SDS011;10997;52.242;8.168;2023-11-19T15:32:11;27.02;;;4.90;;
21671;SDS011;10997;52.242;8.168;2023-11-19T15:37:12;27.17;;;4.70;;
21671;SDS011;10997;52.242;8.168;2023-11-19T15:42:14;27.77;;;5.10;;
21671;SDS011;10997;52.242;8.168;2023-11-19T15:47:15;25.42;;;5.88;;
21671;SDS011;10997;52.242;8.168;2023-11-19T15:52:15;25.15;;;5.03;;
21671;SDS011;10997;52.242;8.168;2023-11-19T15:57:16;25.20;;;5.43;;
21671;SDS011;10997;52.242;8.168;2023-11-19T16:02:17;35.08;;;8.73;;
21671;SDS011;10997;52.242;8.168;2023-11-19T16:07:17;28.98;;;4.43;;
21671;SDS011;10997;52.242;8.168;2023-11-19T16:12:20;25.77;;;3.78;;
21671;SDS011;10997;52.242;8.168;2023-11-19T16:17:20;21.02;;;4.28;;
21671;SDS011;10997;52.242;8.168;2023-11-19T16:22:21;20.05;;;4.15;;
21671;SDS011;10997;52.242;8.168;2023-11-19T16:27:21;22.92;;;3.72;;
21671;SDS011;10997;52.242;8.168;2023-11-19T16:32:22;20.33;;;3.85;;
21671;SDS011;10997;52.242;8.168;2023-11-19T16:37:22;24.92;;;4.68;;
21671;SDS011;10997;52.242;8.168;2023-11-19T16:42:23;25.15;;;4.22;;
21671;SDS011;10997;52.242;8.168;2023-11-19T16:47:24;24.42;;;4.13;;
21671;SDS011;10997;52.242;8.168;2023-11-19T16:52:24;24.05;;;4.65;;
21671;SDS011;10997;52.242;8.168;2023-11-19T16:57:25;23.60;;;4.45;;
21671;SDS011;10997;52.242;8.168;2023-11-19T17:02:27;21.27;;;4.22;;
21671;SDS011;10997;52.242;8.168;2023-11-19T17:07:28;22.23;;;4.82;;
21671;SDS011;10997;52.242;8.168;2023-11-19T17:12:29;24.75;;;4.70;;
21671;SDS011;10997;52.242;8.168;2023-11-19T17:17:31;22.10;;;4.18;;
21671;SDS011;10997;52.242;8.168;2023-11-19T17:22:35;21.80;;;4.00;;
21671;SDS011;10997;52.242;8.168;2023-11-19T17:27:38;26.60;;;4.70;;
21671;SDS011;10997;52.242;8.168;2023-11-19T17:32:38;23.05;;;4.43;;
21671;SDS011;10997;52.242;8.168;2023-11-19T17:37:39;25.52;;;4.43;;
21671;SDS011;10997;52.242;8.168;2023-11-19T17:42:41;28.20;;;5.32;;
21671;SDS011;10997;52.242;8.168;2023-11-19T17:47:41;27.02;;;4.35;;
21671;SDS011;10997;52.242;8.168;2023-11-19T17:52:42;24.40;;;4.20;;
21671;SDS011;10997;52.242;8.168;2023-11-19T17:57:43;25.30;;;3.90;;
21671;SDS011;10997;52.242;8.168;2023-11-19T18:02:44;23.00;;;4.05;;
21671;SDS011;10997;52.242;8.168;2023-11-19T18:07:47;21.10;;;3.78;;
21671;SDS011;10997;52.242;8.168;2023-11-19T18:12:48;19.48;;;4.47;;
21671;SDS011;10997;52.242;8.168;2023-11-19T18:17:48;23.50;;;4.40;;
21671;SDS011;10997;52.242;8.168;2023-11-19T18:22:49;19.83;;;4.68;;
21671;SDS011;10997;52.242;8.168;2023-11-19T18:27:50;22.75;;;4.30;;
21671;SDS011;10997;52.242;8.168;2023-11-19T18:32:50;25.25;;;4.80;;
21671;SDS011;10997;52.242;8.168;2023-11-19T18:37:52;22.33;;;4.97;;
21671;SDS011;10997;52.242;8.168;2023-11-19T18:42:53;28.00;;;5.53;;
21671;SDS011;10997;52.242;8.168;2023-11-19T18:47:53;26.15;;;5.18;;
21671;SDS011;10997;52.242;8.168;2023-11-19T18:52:54;19.55;;;4.53;;
21671;SDS011;10997;52.242;8.168;2023-11-19T18:57:54;24.30;;;4.28;;
21671;SDS011;10997;52.242;8.168;2023-11-19T19:02:55;25.77;;;5.15;;
21671;SDS011;10997;52.242;8.168;2023-11-19T19:07:56;23.98;;;5.45;;
21671;SDS011;10997;52.242;8.168;2023-11-19T19:12:57;26.42;;;5.03;;
21671;SDS011;10997;52.242;8.168;2023-11-19T19:17:58;17.13;;;4.90;;
21671;SDS011;10997;52.242;8.168;2023-11-19T19:22:59;22.58;;;5.88;;
21671;SDS011;10997;52.242;8.168;2023-11-19T19:28:00;14.35;;;4.10;;
21671;SDS011;10997;52.242;8.168;2023-11-19T19:33:01;17.63;;;5.07;;
21671;SDS011;10997;52.242;8.168;2023-11-19T19:38:02;16.58;;;4.18;;
21671;SDS011;10997;52.242;8.168;2023-11-19T19:43:03;17.67;;;5.82;;
21671;SDS011;10997;52.242;8.168;2023-11-19T19:48:04;16.38;;;4.78;;
21671;SDS011;10997;52.242;8.168;2023-11-19T19:53:05;12.05;;;3.35;;
21671;SDS011;10997;52.242;8.168;2023-11-19T19:58:06;9.65;;;3.30;;
21671;SDS011;10997;52.242;8.168;2023-11-19T20:03:07;8.52;;;3.03;;
21671;SDS011;10997;52.242;8.168;2023-11-19T20:08:08;13.48;;;3.25;;
21671;SDS011;10997;52.242;8.168;2023-11-19T20:13:09;9.30;;;4.50;;
21671;SDS011;10997;52.242;8.168;2023-11-19T20:18:09;7.05;;;2.90;;
21671;SDS011;10997;52.242;8.168;2023-11-19T20:23:12;7.22;;;2.50;;
21671;SDS011;10997;52.242;8.168;2023-11-19T20:28:12;7.63;;;4.10;;
21671;SDS011;10997;52.242;8.168;2023-11-19T20:33:13;5.03;;;3.15;;
21671;SDS011;10997;52.242;8.168;2023-11-19T20:38:14;4.57;;;2.30;;
21671;SDS011;10997;52.242;8.168;2023-11-19T20:43:16;6.20;;;2.47;;
21671;SDS011;10997;52.242;8.168;2023-11-19T20:48:16;5.93;;;2.40;;
21671;SDS011;10997;52.242;8.168;2023-11-19T20:53:17;15.57;;;9.55;;
21671;SDS011;10997;52.242;8.168;2023-11-19T20:58:18;6.30;;;2.85;;
21671;SDS011;10997;52.242;8.168;2023-11-19T21:03:19;4.53;;;2.10;;
21671;SDS011;10997;52.242;8.168;2023-11-19T21:08:20;2.88;;;1.85;;
21671;SDS011;10997;52.242;8.168;2023-11-19T21:13:21;4.88;;;1.95;;
21671;SDS011;10997;52.242;8.168;2023-11-19T21:18:22;9.65;;;5.28;;
21671;SDS011;10997;52.242;8.168;2023-11-19T21:23:23;3.03;;;2.33;;
21671;SDS011;10997;52.242;8.168;2023-11-19T21:28:25;3.53;;;2.20;;
21671;SDS011;10997;52.242;8.168;2023-11-19T21:33:29;4.88;;;2.45;;
21671;SDS011;10997;52.242;8.168;2023-11-19T21:38:30;9.43;;;4.95;;
21671;SDS011;10997;52.242;8.168;2023-11-19T21:43:31;5.72;;;2.28;;
21671;SDS011;10997;52.242;8.168;2023-11-19T21:48:33;3.83;;;2.65;;
21671;SDS011;10997;52.242;8.168;2023-11-19T21:53:34;4.68;;;2.30;;
21671;SDS011;10997;52.242;8.168;2023-11-19T21:58:35;3.05;;;1.92;;
21671;SDS011;10997;52.242;8.168;2023-11-19T22:03:35;3.75;;;1.75;;
21671;SDS011;10997;52.242;8.168;2023-11-19T22:08:36;2.97;;;1.40;;
21671;SDS011;10997;52.242;8.168;2023-11-19T22:13:37;2.60;;;1.25;;
21671;SDS011;10997;52.242;8.168;2023-11-19T22:18:38;2.35;;;1.50;;
21671;SDS011;10997;52.242;8.168;2023-11-19T22:23:38;3.25;;;1.35;;
21671;SDS011;10997;52.242;8.168;2023-11-19T22:28:40;2.20;;;1.40;;
21671;SDS011;10997;52.242;8.168;2023-11-19T22:33:40;3.28;;;1.38;;
21671;SDS011;10997;52.242;8.168;2023-11-19T22:38:42;3.30;;;1.50;;
21671;SDS011;10997;52.242;8.168;2023-11-19T22:43:42;2.85;;;1.67;;
21671;SDS011;10997;52.242;8.168;2023-11-19T22:48:43;2.55;;;1.40;;
21671;SDS011;10997;52.242;8.168;2023-11-19T22:53:44;4.60;;;1.70;;
21671;SDS011;10997;52.242;8.168;2023-11-19T22:58:44;4.88;;;2.25;;
21671;SDS011;10997;52.242;8.168;2023-11-19T23:03:49;6.47;;;2.22;;
21671;SDS011;10997;52.242;8.168;2023-11-19T23:08:49;4.68;;;2.50;;
21671;SDS011;10997;52.242;8.168;2023-11-19T23:13:50;3.38;;;2.47;;
21671;SDS011;10997;52.242;8.168;2023-11-19T23:18:54;4.25;;;2.35;;
21671;SDS011;10997;52.242;8.168;2023-11-19T23:23:55;7.05;;;2.88;;
21671;SDS011;10997;52.242;8.168;2023-11-19T23:28:56;3.88;;;2.42;;
21671;SDS011;10997;52.242;8.168;2023-11-19T23:33:56;5.10;;;2.67;;
21671;SDS011;10997;52.242;8.168;2023-11-19T23:38:58;5.15;;;2.63;;
21671;SDS011;10997;52.242;8.168;2023-11-19T23:43:59;4.45;;;2.90;;
21671;SDS011;10997;52.242;8.168;2023-11-19T23:48:59;6.97;;;3.15;;
21671;SDS011;10997;52.242;8.168;2023-11-19T23:54:00;7.05;;;3.08;;
21671;SDS011;10997;52.242;8.168;2023-11-19T23:59:00;3.58;;;2.63;;
